Time;durP1;ratioP1;P1;durP2;ratioP2;P2;SDS_P1;SDS_P2;PMS_P1;PMS_P2;Temp;Humidity;BMP_temperature;BMP_pressure;BME280_temperature;BME280_humidity;BME280_pressure;Samples;Min_cycle;Max_cycle;Signal;HPM_P1;HPM_P2
2022/09/15 00:00:10;;;;;;;5.43;4.93;;;11.80;99.90;;;;;;6128108;23;20112;-78
2022/09/15 00:02:38;;;;;;;5.65;4.82;;;11.80;99.90;;;;;;6125791;23;20033;-77
2022/09/15 00:05:06;;;;;;;6.05;5.55;;;11.80;99.90;;;;;;6126634;23;20029;-78
2022/09/15 00:07:34;;;;;;;5.68;5.22;;;11.80;99.90;;;;;;6126640;23;20055;-78
2022/09/15 00:10:02;;;;;;;5.75;5.20;;;11.80;99.90;;;;;;6126865;23;20045;-78
2022/09/15 00:12:30;;;;;;;6.97;5.82;;;11.80;99.90;;;;;;6125584;23;20025;-78
2022/09/15 00:14:58;;;;;;;5.70;5.30;;;11.80;99.90;;;;;;6126684;23;20053;-78
2022/09/15 00:17:26;;;;;;;5.38;4.88;;;11.90;99.90;;;;;;6127841;23;20028;-77
2022/09/15 00:19:54;;;;;;;5.95;5.43;;;11.90;99.90;;;;;;6153244;23;20332;-77
2022/09/15 00:22:21;;;;;;;5.32;4.93;;;11.90;99.90;;;;;;6152729;23;20025;-78
2022/09/15 00:24:49;;;;;;;8.27;4.80;;;11.90;99.90;;;;;;6126454;23;20025;-78
2022/09/15 00:27:16;;;;;;;5.93;5.30;;;11.90;99.90;;;;;;6154107;23;20025;-78
2022/09/15 00:29:44;;;;;;;5.63;5.05;;;11.90;99.90;;;;;;6151887;23;20041;-78
2022/09/15 00:32:13;;;;;;;5.50;5.10;;;11.90;99.90;;;;;;6152249;23;20109;-79
2022/09/15 00:34:40;;;;;;;5.50;5.10;;;11.90;99.90;;;;;;6153178;23;20347;-78
2022/09/15 00:37:07;;;;;;;7.13;5.50;;;11.80;99.90;;;;;;6127821;23;20026;-78
2022/09/15 00:39:35;;;;;;;6.43;5.60;;;11.90;99.90;;;;;;6151199;23;20080;-78
2022/09/15 00:42:04;;;;;;;5.75;4.90;;;11.90;99.90;;;;;;6152464;23;20022;-78
2022/09/15 00:45:03;;;;;;;5.38;4.88;;;11.90;99.90;;;;;;6126995;23;20443;-78
2022/09/15 00:47:35;;;;;;;5.40;4.90;;;11.90;99.90;;;;;;6061820;23;20037;-78
2022/09/15 00:50:09;;;;;;;5.60;5.13;;;11.90;99.90;;;;;;6135218;23;20400;-78
2022/09/15 00:52:44;;;;;;;5.28;4.78;;;11.90;99.90;;;;;;6152562;23;20110;-80
2022/09/15 00:55:16;;;;;;;6.70;5.68;;;11.90;99.90;;;;;;6127828;23;20056;-78
2022/09/15 00:57:51;;;;;;;5.32;4.93;;;11.90;99.90;;;;;;6151022;23;20021;-78
2022/09/15 01:00:23;;;;;;;5.82;4.75;;;11.90;99.90;;;;;;6150311;23;20029;-78
2022/09/15 01:02:52;;;;;;;5.47;4.97;;;11.90;99.90;;;;;;6125381;23;20021;-78
2022/09/15 01:05:22;;;;;;;5.47;5.07;;;11.90;99.90;;;;;;6153321;23;20032;-78
2022/09/15 01:08:00;;;;;;;5.35;4.60;;;11.90;99.90;;;;;;6151270;23;20146;-78
2022/09/15 01:10:32;;;;;;;5.38;4.97;;;11.90;99.90;;;;;;6149941;23;20029;-79
2022/09/15 01:13:03;;;;;;;5.35;4.85;;;12.00;99.90;;;;;;6152870;23;20026;-78
2022/09/15 01:15:39;;;;;;;5.93;5.35;;;11.90;99.90;;;;;;6125573;23;20120;-78
2022/09/15 01:18:16;;;;;;;5.30;4.82;;;11.90;99.90;;;;;;6126135;23;20026;-78
2022/09/15 01:21:07;;;;;;;5.97;5.38;;;12.00;99.90;;;;;;6127197;23;20072;-78
2022/09/15 01:24:15;;;;;;;6.13;5.63;;;12.00;99.90;;;;;;6153666;23;20112;-79
2022/09/15 01:27:28;;;;;;;5.32;4.93;;;11.90;99.90;;;;;;6152493;23;20029;-78
2022/09/15 01:30:10;;;;;;;7.55;5.25;;;12.00;99.90;;;;;;6060627;23;20027;-78
2022/09/15 01:33:12;;;;;;;5.22;4.72;;;11.90;99.90;;;;;;6063165;23;20042;-78
2022/09/15 01:35:56;;;;;;;5.95;5.03;;;11.90;99.90;;;;;;6108778;23;20125;-78
2022/09/15 01:38:35;;;;;;;5.70;5.20;;;11.90;99.90;;;;;;6125913;23;20104;-78
2022/09/15 01:41:09;;;;;;;6.50;5.85;;;11.90;99.90;;;;;;6152725;23;20025;-78
2022/09/15 01:43:43;;;;;;;5.07;4.68;;;11.90;99.90;;;;;;6151380;23;20029;-79
2022/09/15 01:46:15;;;;;;;5.07;4.57;;;11.90;99.90;;;;;;6151972;23;20108;-78
2022/09/15 01:48:43;;;;;;;5.38;4.90;;;11.90;99.90;;;;;;6127698;23;20025;-78
2022/09/15 01:51:11;;;;;;;6.93;4.22;;;11.90;99.90;;;;;;6152592;23;20032;-78
2022/09/15 01:53:38;;;;;;;5.35;4.95;;;11.90;99.90;;;;;;6152219;23;20025;-78
2022/09/15 01:56:09;;;;;;;10.15;4.57;;;11.90;99.90;;;;;;6152340;23;20026;-77
2022/09/15 01:58:39;;;;;;;4.95;4.55;;;11.90;99.90;;;;;;6127908;23;20017;-78
2022/09/15 02:01:14;;;;;;;4.90;4.40;;;11.90;99.90;;;;;;6151739;23;20032;-79
2022/09/15 02:03:48;;;;;;;5.97;4.40;;;11.90;99.90;;;;;;6124877;23;20021;-78
2022/09/15 02:06:23;;;;;;;5.20;4.65;;;11.90;99.90;;;;;;6126297;23;20057;-78
2022/09/15 02:08:56;;;;;;;4.82;4.43;;;11.90;99.90;;;;;;6126427;23;20497;-77
2022/09/15 02:11:26;;;;;;;4.75;4.35;;;11.90;99.90;;;;;;6150982;23;20418;-77
2022/09/15 02:14:10;;;;;;;4.85;4.45;;;11.90;99.90;;;;;;6151405;23;20336;-77
2022/09/15 02:16:45;;;;;;;7.57;4.28;;;11.90;99.90;;;;;;6152096;23;20348;-77
2022/09/15 02:19:20;;;;;;;4.70;4.30;;;11.90;99.90;;;;;;6152743;23;20097;-76
2022/09/15 02:21:56;;;;;;;4.30;4.00;;;11.90;99.90;;;;;;6150393;23;20128;-77
2022/09/15 02:24:29;;;;;;;5.38;4.93;;;11.90;99.90;;;;;;6151896;23;20049;-78
2022/09/15 02:26:58;;;;;;;5.70;4.63;;;11.90;99.90;;;;;;6151830;23;20025;-78
2022/09/15 02:29:27;;;;;;;4.80;4.40;;;11.90;99.90;;;;;;6152783;23;20017;-78
2022/09/15 02:32:01;;;;;;;4.43;4.07;;;11.90;99.90;;;;;;6151266;23;20415;-79
2022/09/15 02:34:34;;;;;;;6.40;4.53;;;11.90;99.90;;;;;;6153563;23;20037;-78
2022/09/15 02:37:03;;;;;;;4.50;4.13;;;11.90;99.90;;;;;;6126775;23;20366;-79
2022/09/15 02:39:35;;;;;;;6.55;4.30;;;11.90;99.90;;;;;;6125447;23;20053;-78
2022/09/15 02:42:03;;;;;;;5.13;4.63;;;11.90;99.90;;;;;;6123356;23;20026;-78
2022/09/15 02:44:31;;;;;;;4.95;4.55;;;11.80;99.90;;;;;;6153214;23;20026;-78
2022/09/15 02:47:01;;;;;;;5.15;4.65;;;11.80;99.90;;;;;;6151328;23;20084;-78
2022/09/15 02:49:29;;;;;;;4.75;4.35;;;11.80;99.90;;;;;;6150442;23;20045;-77
2022/09/15 02:51:56;;;;;;;4.70;4.22;;;11.80;99.90;;;;;;6124477;23;20028;-78
2022/09/15 02:54:23;;;;;;;4.70;4.30;;;11.80;99.90;;;;;;6150550;23;20057;-78
2022/09/15 02:56:51;;;;;;;4.82;4.43;;;11.80;99.90;;;;;;6152556;23;20466;-77
2022/09/15 02:59:18;;;;;;;4.65;4.32;;;11.80;99.90;;;;;;6150484;23;20040;-78
2022/09/15 03:01:46;;;;;;;4.57;4.25;;;11.80;99.90;;;;;;6100180;23;20032;-79
2022/09/15 03:04:14;;;;;;;6.55;4.75;;;11.80;99.90;;;;;;6152632;23;20028;-78
2022/09/15 03:06:42;;;;;;;7.30;4.80;;;11.80;99.90;;;;;;6124826;23;20068;-78
2022/09/15 03:09:10;;;;;;;7.45;5.60;;;11.70;99.90;;;;;;6125013;23;20060;-78
2022/09/15 03:11:37;;;;;;;8.50;5.88;;;11.70;99.90;;;;;;6148839;23;20104;-78
2022/09/15 03:14:07;;;;;;;5.63;4.40;;;11.70;99.90;;;;;;6126869;23;20121;-79
2022/09/15 03:16:35;;;;;;;5.30;4.80;;;11.70;99.90;;;;;;6151780;23;20108;-79
2022/09/15 03:19:03;;;;;;;5.60;4.80;;;11.70;99.90;;;;;;6125313;23;20047;-79
2022/09/15 03:21:32;;;;;;;5.40;4.85;;;11.70;99.90;;;;;;6125083;23;20315;-73
2022/09/15 03:23:59;;;;;;;6.40;5.03;;;11.70;99.90;;;;;;6152909;23;20032;-73
2022/09/15 03:26:27;;;;;;;5.55;5.03;;;11.70;99.90;;;;;;6150243;23;20021;-73
2022/09/15 03:28:54;;;;;;;6.53;5.22;;;11.70;99.90;;;;;;6150594;23;20025;-73
2022/09/15 03:31:22;;;;;;;6.95;5.07;;;11.70;99.90;;;;;;6149718;23;20117;-73
2022/09/15 03:33:49;;;;;;;5.35;4.85;;;11.70;99.90;;;;;;6126977;23;20387;-73
2022/09/15 03:36:16;;;;;;;5.18;4.78;;;11.80;99.90;;;;;;6150791;23;20092;-73
2022/09/15 03:38:45;;;;;;;5.90;5.43;;;11.80;99.90;;;;;;6151764;23;20324;-73
2022/09/15 03:41:13;;;;;;;5.85;5.30;;;11.80;99.90;;;;;;6151288;23;20029;-73
2022/09/15 03:43:41;;;;;;;8.13;7.20;;;11.80;99.90;;;;;;6151257;23;20021;-72
2022/09/15 03:46:11;;;;;;;17.83;6.22;;;11.90;99.90;;;;;;6123981;23;20028;-72
2022/09/15 03:48:40;;;;;;;5.88;5.05;;;11.90;99.90;;;;;;6123744;23;20036;-73
2022/09/15 03:51:10;;;;;;;6.45;5.90;;;11.90;99.90;;;;;;6125519;23;20033;-73
2022/09/15 03:53:40;;;;;;;5.82;5.32;;;11.90;99.90;;;;;;6151685;23;20025;-77
2022/09/15 03:56:11;;;;;;;6.22;5.63;;;11.90;99.90;;;;;;6150775;23;20506;-78
2022/09/15 03:58:39;;;;;;;6.63;5.45;;;11.90;99.90;;;;;;6152238;23;20022;-78
2022/09/15 04:01:06;;;;;;;6.75;6.13;;;11.90;99.90;;;;;;6126061;23;20144;-77
2022/09/15 04:03:33;;;;;;;7.53;6.82;;;11.90;99.90;;;;;;6151234;23;20414;-77
2022/09/15 04:06:02;;;;;;;6.90;6.30;;;11.90;99.90;;;;;;6123572;23;20068;-78
2022/09/15 04:08:29;;;;;;;8.50;6.38;;;11.90;99.90;;;;;;6149993;23;20189;-77
2022/09/15 04:10:59;;;;;;;7.15;6.50;;;11.90;99.90;;;;;;6150249;23;20033;-77
2022/09/15 04:13:27;;;;;;;7.47;6.78;;;11.90;99.90;;;;;;6149510;23;20108;-72
2022/09/15 04:16:00;;;;;;;10.10;6.78;;;11.90;99.90;;;;;;6149540;23;20026;-73
2022/09/15 04:18:28;;;;;;;6.88;6.22;;;11.90;99.90;;;;;;6151574;23;20025;-73
2022/09/15 04:20:59;;;;;;;6.85;6.25;;;11.90;99.90;;;;;;6124390;23;20022;-72
2022/09/15 04:23:26;;;;;;;6.97;6.22;;;11.90;99.90;;;;;;6124272;23;20036;-73
2022/09/15 04:25:57;;;;;;;6.75;6.05;;;11.90;99.90;;;;;;6150115;23;20140;-72
2022/09/15 04:28:27;;;;;;;9.32;6.53;;;11.90;99.90;;;;;;6151428;23;20056;-73
2022/09/15 04:31:03;;;;;;;7.38;6.30;;;12.00;99.90;;;;;;6149481;23;20025;-73
2022/09/15 04:33:31;;;;;;;6.65;6.03;;;12.00;99.90;;;;;;6149974;23;20124;-74
2022/09/15 04:35:59;;;;;;;6.32;5.72;;;12.00;99.90;;;;;;6152724;23;20021;-73
2022/09/15 04:38:26;;;;;;;7.82;6.40;;;12.00;99.90;;;;;;6151553;23;20018;-71
2022/09/15 04:40:54;;;;;;;6.65;5.80;;;12.00;99.90;;;;;;6147759;23;20025;-73
2022/09/15 04:43:22;;;;;;;6.95;6.32;;;12.00;99.90;;;;;;6149982;23;20021;-79
2022/09/15 04:45:50;;;;;;;6.85;6.25;;;12.10;99.90;;;;;;6101994;23;20112;-78
2022/09/15 04:48:18;;;;;;;6.80;6.20;;;12.10;99.90;;;;;;6153577;23;20035;-77
2022/09/15 04:50:45;;;;;;;8.43;7.57;;;12.10;99.90;;;;;;6151737;23;20044;-79
2022/09/15 04:53:14;;;;;;;7.78;6.30;;;12.10;99.90;;;;;;6153471;23;20025;-78
2022/09/15 04:55:43;;;;;;;7.85;7.10;;;12.20;99.90;;;;;;6104495;23;20092;-79
2022/09/15 04:58:11;;;;;;;7.35;6.53;;;12.20;99.90;;;;;;6126428;23;20052;-73
2022/09/15 05:00:42;;;;;;;10.15;7.25;;;12.20;99.90;;;;;;6123187;23;20466;-75
2022/09/15 05:03:12;;;;;;;8.05;7.22;;;12.20;99.90;;;;;;6151177;23;20073;-78
2022/09/15 05:05:40;;;;;;;8.48;7.15;;;12.20;99.90;;;;;;6152550;23;20126;-77
2022/09/15 05:08:08;;;;;;;8.57;7.57;;;12.20;99.90;;;;;;6125868;23;20026;-77
2022/09/15 05:10:37;;;;;;;7.53;6.82;;;12.20;99.90;;;;;;6151047;23;20021;-72
2022/09/15 05:13:04;;;;;;;10.27;7.28;;;12.30;99.90;;;;;;6151717;23;20370;-71
2022/09/15 05:15:31;;;;;;;8.63;7.20;;;12.40;99.90;;;;;;6150347;23;20104;-76
2022/09/15 05:17:59;;;;;;;7.45;6.85;;;12.40;99.90;;;;;;6148486;23;20021;-77
2022/09/15 05:20:28;;;;;;;9.52;7.95;;;12.40;99.90;;;;;;6147289;23;20053;-76
2022/09/15 05:22:55;;;;;;;8.82;7.93;;;12.50;99.90;;;;;;6124042;23;20474;-77
2022/09/15 05:25:23;;;;;;;8.65;7.88;;;12.60;99.90;;;;;;6150432;23;20025;-75
2022/09/15 05:27:51;;;;;;;9.35;8.50;;;12.60;99.90;;;;;;6148838;23;20030;-76
2022/09/15 05:30:18;;;;;;;9.60;8.48;;;12.60;99.90;;;;;;6151600;23;20455;-75
2022/09/15 05:32:45;;;;;;;9.80;8.90;;;12.60;99.90;;;;;;6127269;23;20021;-76
2022/09/15 05:35:13;;;;;;;11.77;9.10;;;12.60;99.90;;;;;;6149616;23;20026;-76
2022/09/15 05:37:41;;;;;;;9.80;8.90;;;12.60;99.90;;;;;;6148931;23;20025;-71
2022/09/15 05:40:10;;;;;;;10.48;9.48;;;12.60;99.90;;;;;;6149328;23;20374;-72
2022/09/15 05:42:37;;;;;;;9.77;8.68;;;12.60;99.90;;;;;;6124404;23;20025;-71
2022/09/15 05:45:06;;;;;;;9.98;8.95;;;12.60;99.90;;;;;;6124391;23;20052;-72
2022/09/15 05:47:33;;;;;;;11.48;9.75;;;12.60;99.90;;;;;;6150055;23;20025;-72
2022/09/15 05:50:01;;;;;;;13.63;8.70;;;12.60;99.90;;;;;;6152778;23;20036;-73
2022/09/15 05:52:28;;;;;;;11.10;9.75;;;12.60;99.90;;;;;;6152908;23;20026;-72
2022/09/15 05:54:57;;;;;;;10.57;8.82;;;12.60;99.90;;;;;;6149276;23;20060;-73
2022/09/15 05:57:25;;;;;;;10.52;9.20;;;12.60;99.90;;;;;;6148348;23;20113;-73
2022/09/15 05:59:52;;;;;;;10.05;8.90;;;12.60;99.90;;;;;;6149594;23;20367;-72
2022/09/15 06:02:19;;;;;;;11.73;10.52;;;12.60;99.90;;;;;;6150370;23;20112;-73
2022/09/15 06:04:47;;;;;;;11.77;10.65;;;12.60;99.90;;;;;;6148558;23;20021;-72
2022/09/15 06:07:14;;;;;;;12.55;9.60;;;12.60;99.90;;;;;;6152115;23;20068;-73
2022/09/15 06:09:42;;;;;;;9.77;8.23;;;12.60;99.90;;;;;;6103139;23;20022;-72
2022/09/15 06:12:11;;;;;;;12.68;9.43;;;12.70;99.90;;;;;;6151405;23;20032;-72
2022/09/15 06:14:39;;;;;;;11.30;7.47;;;12.70;99.90;;;;;;6149933;23;20025;-72
2022/09/15 06:17:06;;;;;;;11.52;8.30;;;12.70;99.90;;;;;;6149537;23;20363;-72
2022/09/15 06:19:35;;;;;;;11.15;7.82;;;12.80;99.90;;;;;;6152245;23;20494;-72
2022/09/15 06:22:05;;;;;;;10.95;8.18;;;12.80;99.90;;;;;;6126624;23;20026;-73
2022/09/15 06:24:37;;;;;;;10.23;7.70;;;12.80;99.90;;;;;;6152232;23;20017;-73
2022/09/15 06:27:13;;;;;;;8.75;7.85;;;12.80;99.90;;;;;;6091279;23;20043;-72
2022/09/15 06:29:41;;;;;;;10.55;9.35;;;12.80;99.90;;;;;;6090803;23;20026;-71
2022/09/15 06:32:08;;;;;;;11.35;8.32;;;12.80;99.90;;;;;;6064560;23;20026;-72
2022/09/15 06:34:35;;;;;;;10.52;7.82;;;12.70;99.90;;;;;;6064925;23;20030;-72
2022/09/15 06:37:03;;;;;;;17.65;8.38;;;12.70;99.90;;;;;;6065947;23;20033;-72
2022/09/15 06:39:30;;;;;;;8.50;7.70;;;12.80;99.90;;;;;;6090870;23;20175;-72
2022/09/15 06:41:57;;;;;;;12.45;8.88;;;12.80;99.90;;;;;;6064777;23;20534;-73
2022/09/15 06:44:30;;;;;;;13.25;7.78;;;12.80;99.90;;;;;;6089358;23;20031;-71
2022/09/15 06:46:57;;;;;;;12.05;7.95;;;12.90;99.90;;;;;;6090872;23;20502;-72
2022/09/15 06:49:25;;;;;;;13.63;7.90;;;12.90;99.90;;;;;;6089427;23;20093;-72
2022/09/15 06:51:52;;;;;;;9.98;8.30;;;12.90;99.90;;;;;;6087748;23;20562;-72
2022/09/15 06:54:20;;;;;;;12.15;8.40;;;12.80;99.90;;;;;;6066503;23;20022;-72
2022/09/15 06:56:47;;;;;;;14.30;8.02;;;12.90;99.90;;;;;;6091643;23;20095;-72
2022/09/15 06:59:16;;;;;;;18.42;7.60;;;12.90;99.90;;;;;;6147158;23;20044;-74
2022/09/15 07:01:45;;;;;;;10.13;7.10;;;12.90;99.90;;;;;;6149747;23;20113;-72
2022/09/15 07:04:12;;;;;;;10.10;7.53;;;12.90;99.90;;;;;;6152686;23;20056;-72
2022/09/15 07:06:40;;;;;;;8.43;6.85;;;12.90;99.90;;;;;;6126927;23;20033;-73
2022/09/15 07:09:08;;;;;;;10.30;6.63;;;12.90;99.90;;;;;;6151229;23;20062;-78
2022/09/15 07:11:35;;;;;;;9.15;6.72;;;12.90;99.90;;;;;;6150353;23;20511;-72
2022/09/15 07:14:03;;;;;;;11.75;7.82;;;12.90;99.90;;;;;;6150997;23;20092;-76
2022/09/15 07:16:30;;;;;;;11.82;7.20;;;13.00;99.90;;;;;;6151903;23;20399;-77
2022/09/15 07:19:02;;;;;;;8.75;5.38;;;13.00;99.90;;;;;;6151287;23;20022;-77
2022/09/15 07:21:29;;;;;;;7.20;5.43;;;13.10;99.90;;;;;;6152177;23;20052;-77
2022/09/15 07:23:58;;;;;;;11.30;5.63;;;13.10;99.90;;;;;;6152387;23;20021;-77
2022/09/15 07:26:27;;;;;;;8.95;5.90;;;13.10;99.90;;;;;;6151703;23;20045;-77
2022/09/15 07:28:57;;;;;;;10.07;6.38;;;13.10;99.90;;;;;;6151096;23;20354;-77
2022/09/15 07:31:28;;;;;;;12.65;6.38;;;13.10;99.90;;;;;;6152941;23;20419;-76
2022/09/15 07:33:56;;;;;;;9.98;6.30;;;13.10;99.90;;;;;;6153186;23;20095;-73
2022/09/15 07:36:24;;;;;;;10.23;5.90;;;13.10;99.90;;;;;;6152114;23;20032;-77
2022/09/15 07:38:52;;;;;;;8.70;4.65;;;13.20;99.90;;;;;;6150520;23;20406;-77
2022/09/15 07:41:22;;;;;;;6.57;4.75;;;13.20;99.90;;;;;;6101710;23;20029;-78
2022/09/15 07:43:52;;;;;;;7.72;4.57;;;13.20;99.90;;;;;;6124834;23;20100;-73
2022/09/15 07:46:21;;;;;;;5.40;4.13;;;13.20;99.90;;;;;;6149068;23;20373;-73
2022/09/15 07:48:51;;;;;;;5.75;4.53;;;13.10;99.90;;;;;;6149183;23;20063;-74
2022/09/15 07:51:19;;;;;;;4.72;4.22;;;13.20;99.90;;;;;;6151123;23;20360;-72
2022/09/15 07:53:49;;;;;;;5.90;4.75;;;13.20;99.90;;;;;;6150666;23;20401;-72
2022/09/15 07:56:17;;;;;;;5.40;4.90;;;13.30;99.90;;;;;;6149352;23;20355;-77
2022/09/15 07:58:45;;;;;;;4.68;4.10;;;13.30;99.90;;;;;;6150588;23;20029;-78
2022/09/15 08:01:14;;;;;;;6.15;3.85;;;13.40;99.90;;;;;;6151376;23;20021;-78
2022/09/15 08:03:43;;;;;;;6.05;4.28;;;13.40;99.90;;;;;;6121797;23;20487;-77
2022/09/15 08:06:11;;;;;;;6.38;4.35;;;13.50;99.90;;;;;;6148876;23;20109;-78
2022/09/15 08:08:42;;;;;;;6.93;4.07;;;13.50;99.90;;;;;;6151478;23;20029;-78
2022/09/15 08:11:16;;;;;;;;;;;13.50;99.90;;;;;;6125453;23;20029;-77
2022/09/15 08:13:44;;;;;;;6.10;4.18;;;13.60;99.90;;;;;;6123063;23;20346;-77
2022/09/15 08:16:14;;;;;;;5.45;4.00;;;13.60;99.90;;;;;;6147257;23;20040;-77
2022/09/15 08:18:43;;;;;;;5.32;3.55;;;13.70;99.90;;;;;;6121862;23;20037;-79
2022/09/15 08:21:13;;;;;;;4.13;3.42;;;13.70;99.90;;;;;;6150263;23;20022;-76
2022/09/15 08:23:41;;;;;;;3.63;3.33;;;13.70;99.90;;;;;;6122528;23;20031;-77
2022/09/15 08:26:11;;;;;;;3.75;3.28;;;13.60;99.90;;;;;;6122474;23;20031;-76
2022/09/15 08:28:39;;;;;;;4.28;3.67;;;13.60;99.90;;;;;;6150669;23;20117;-77
2022/09/15 08:31:10;;;;;;;4.95;3.85;;;13.50;99.90;;;;;;6151072;23;20025;-77
2022/09/15 08:33:37;;;;;;;6.05;4.15;;;13.50;99.90;;;;;;6177810;23;20418;-78
2022/09/15 08:36:10;;;;;;;5.97;3.47;;;13.50;99.90;;;;;;6181754;23;20540;-74
2022/09/15 08:38:40;;;;;;;7.68;4.13;;;13.50;99.90;;;;;;6183466;23;20028;-73
2022/09/15 08:41:13;;;;;;;5.72;4.00;;;13.40;99.90;;;;;;6181701;23;20032;-73
2022/09/15 08:43:49;;;;;;;5.55;4.65;;;13.40;99.90;;;;;;6179532;23;20285;-73
2022/09/15 08:46:25;;;;;;;5.10;4.40;;;13.40;99.90;;;;;;6154327;23;20028;-74
2022/09/15 08:49:00;;;;;;;7.25;5.10;;;13.40;99.90;;;;;;6183039;23;20208;-74
2022/09/15 08:51:35;;;;;;;4.32;3.92;;;13.50;99.90;;;;;;6155085;23;20079;-74
2022/09/15 08:54:11;;;;;;;8.27;3.72;;;13.60;99.90;;;;;;6181690;23;20061;-72
2022/09/15 08:56:41;;;;;;;5.43;4.57;;;13.70;99.90;;;;;;6182387;23;20446;-74
2022/09/15 08:59:14;;;;;;;4.53;3.80;;;13.70;99.90;;;;;;6181579;23;20025;-74
2022/09/15 09:01:57;;;;;;;4.55;4.15;;;13.60;99.90;;;;;;6180901;23;20036;-73
2022/09/15 09:04:58;;;;;;;4.90;4.50;;;13.50;99.90;;;;;;6179472;23;20100;-74
2022/09/15 09:07:58;;;;;;;9.13;4.70;;;13.40;99.90;;;;;;6154459;23;20021;-73
2022/09/15 09:10:44;;;;;;;5.22;4.72;;;13.30;99.90;;;;;;6152345;23;20025;-74
2022/09/15 09:13:28;;;;;;;5.22;4.72;;;13.30;99.90;;;;;;6129953;23;20457;-78
2022/09/15 09:16:26;;;;;;;5.72;4.70;;;13.30;99.90;;;;;;6154727;23;20047;-79
2022/09/15 09:19:16;;;;;;;5.07;3.65;;;13.40;99.90;;;;;;6128590;23;20513;-78
2022/09/15 09:21:48;;;;;;;4.07;3.78;;;13.60;99.90;;;;;;6180807;23;20076;-79
2022/09/15 09:24:18;;;;;;;5.05;3.65;;;13.60;99.90;;;;;;6182840;23;20350;-78
2022/09/15 09:26:53;;;;;;;4.55;4.25;;;13.60;99.90;;;;;;6182325;23;20411;-78
2022/09/15 09:29:26;;;;;;;5.40;4.05;;;13.60;99.90;;;;;;6154527;23;20357;-78
2022/09/15 09:31:58;;;;;;;4.57;4.18;;;13.60;99.90;;;;;;6154911;23;20029;-79
2022/09/15 09:34:34;;;;;;;8.43;3.92;;;13.60;99.90;;;;;;6181825;23;20489;-78
2022/09/15 09:37:10;;;;;;;5.53;4.28;;;13.60;99.90;;;;;;6154138;23;20075;-78
2022/09/15 09:39:38;;;;;;;5.03;4.45;;;13.60;99.90;;;;;;6154198;23;20021;-77
2022/09/15 09:42:08;;;;;;;4.28;3.97;;;13.70;99.90;;;;;;6177512;23;20119;-76
2022/09/15 09:44:36;;;;;;;4.90;4.10;;;13.90;99.90;;;;;;6180115;23;20438;-77
2022/09/15 09:47:05;;;;;;;6.25;4.07;;;13.90;99.90;;;;;;6153541;23;20545;-77
2022/09/15 09:49:36;;;;;;;5.35;3.90;;;13.90;99.90;;;;;;6180793;23;20029;-77
2022/09/15 09:52:04;;;;;;;5.03;4.40;;;13.90;99.90;;;;;;6181111;23;20363;-78
2022/09/15 09:54:34;;;;;;;7.00;4.22;;;14.00;99.90;;;;;;6155501;23;20099;-77
2022/09/15 09:57:23;;;;;;;4.75;4.35;;;14.10;99.90;;;;;;6152004;23;20021;-78
2022/09/15 09:59:52;;;;;;;4.57;4.10;;;14.10;99.90;;;;;;6128583;23;20535;-78
2022/09/15 10:02:23;;;;;;;4.40;3.97;;;14.20;99.90;;;;;;6181330;23;20071;-78
2022/09/15 10:04:53;;;;;;;5.22;4.00;;;14.20;99.90;;;;;;6181273;23;20350;-78
2022/09/15 10:07:25;;;;;;;9.95;4.43;;;14.20;99.90;;;;;;6179698;23;20032;-77
2022/09/15 10:09:55;;;;;;;5.53;4.22;;;14.20;99.90;;;;;;6154483;23;20039;-77
2022/09/15 10:12:30;;;;;;;11.75;4.35;;;14.10;99.90;;;;;;6182719;23;20025;-77
2022/09/15 10:15:01;;;;;;;5.68;4.03;;;14.20;99.90;;;;;;6154133;23;20025;-73
2022/09/15 10:17:43;;;;;;;5.80;4.68;;;14.20;99.90;;;;;;6179863;23;20366;-73
2022/09/15 10:20:31;;;;;;;4.78;3.58;;;14.00;99.90;;;;;;6154088;23;20021;-71
2022/09/15 10:23:09;;;;;;;4.35;3.95;;;14.00;99.90;;;;;;6178245;23;20031;-72
2022/09/15 10:25:38;;;;;;;6.60;4.28;;;14.00;99.90;;;;;;6178038;23;20048;-73
2022/09/15 10:28:15;;;;;;;8.57;3.63;;;14.00;99.90;;;;;;6154875;23;20064;-72
2022/09/15 10:31:04;;;;;;;4.57;4.15;;;14.00;99.90;;;;;;6180215;23;20033;-73
2022/09/15 10:33:35;;;;;;;8.27;3.83;;;13.90;99.90;;;;;;6178930;23;20028;-75
2022/09/15 10:36:12;;;;;;;5.70;3.50;;;13.90;99.90;;;;;;6181590;23;20025;-77
2022/09/15 10:38:45;;;;;;;6.35;3.42;;;13.90;99.90;;;;;;6131663;23;20017;-77
2022/09/15 10:41:22;;;;;;;4.05;3.72;;;13.80;99.90;;;;;;6130598;23;20123;-76
2022/09/15 10:44:14;;;;;;;5.00;3.72;;;13.80;99.90;;;;;;6179769;23;20017;-76
2022/09/15 10:46:54;;;;;;;4.47;4.05;;;13.90;99.90;;;;;;6155942;23;20104;-76
2022/09/15 10:49:43;;;;;;;6.05;3.88;;;13.80;99.90;;;;;;6154924;23;20112;-78
2022/09/15 10:52:24;;;;;;;5.65;3.38;;;13.80;99.90;;;;;;6151653;23;20021;-76
2022/09/15 10:55:10;;;;;;;7.43;3.90;;;13.80;99.90;;;;;;6152383;23;20052;-77
2022/09/15 10:58:05;;;;;;;5.55;2.88;;;13.90;99.90;;;;;;6180252;23;20029;-75
2022/09/15 11:00:42;;;;;;;4.90;3.45;;;13.80;99.90;;;;;;6127192;23;20033;-78
2022/09/15 11:03:40;;;;;;;6.95;3.35;;;13.90;99.90;;;;;;6127268;23;20021;-76
2022/09/15 11:06:18;;;;;;;7.75;3.15;;;14.00;99.90;;;;;;6178399;23;20377;-76
2022/09/15 11:09:07;;;;;;;3.72;3.33;;;14.00;99.90;;;;;;6179519;23;20032;-75
2022/09/15 11:11:48;;;;;;;4.90;3.35;;;14.10;99.90;;;;;;6151103;23;20099;-76
2022/09/15 11:14:42;;;;;;;3.13;2.83;;;14.10;99.90;;;;;;6177236;23;20139;-77
2022/09/15 11:17:21;;;;;;;;;;;14.20;99.90;;;;;;6180197;23;20425;-77
2022/09/15 11:20:10;;;;;;;4.88;3.22;;;14.30;99.90;;;;;;6174855;23;19919;-77
2022/09/15 11:22:46;;;;;;;8.20;3.45;;;14.40;99.90;;;;;;6128716;23;20474;-77
2022/09/15 11:25:17;;;;;;;4.70;3.33;;;14.40;99.90;;;;;;6180533;23;20021;-77
2022/09/15 11:27:49;;;;;;;7.05;3.72;;;14.50;99.90;;;;;;6179940;23;20036;-76
2022/09/15 11:30:20;;;;;;;6.03;3.40;;;14.50;99.90;;;;;;6151689;23;20479;-77
2022/09/15 11:32:56;;;;;;;7.28;4.15;;;14.50;99.90;;;;;;6151981;23;20025;-78
2022/09/15 11:35:39;;;;;;;4.45;3.20;;;14.60;99.90;;;;;;6182234;23;20028;-78
2022/09/15 11:38:39;;;;;;;6.82;3.50;;;14.60;99.90;;;;;;6127007;23;20448;-78
2022/09/15 11:41:18;;;;;;;4.47;4.07;;;14.50;99.90;;;;;;6178302;23;20051;-74
2022/09/15 11:43:55;;;;;;;7.45;3.78;;;14.50;99.90;;;;;;6176866;23;20100;-73
2022/09/15 11:46:39;;;;;;;8.13;4.03;;;14.60;99.90;;;;;;6151179;23;20437;-74
2022/09/15 11:49:13;;;;;;;6.78;4.50;;;14.60;99.90;;;;;;6176696;23;20035;-72
2022/09/15 11:51:49;;;;;;;10.43;4.15;;;14.60;99.90;;;;;;6177087;23;20029;-73
2022/09/15 11:54:27;;;;;;;8.40;3.63;;;14.70;99.90;;;;;;6177876;23;20017;-72
2022/09/15 11:56:56;;;;;;;4.57;3.88;;;14.70;99.90;;;;;;6175305;23;20148;-72
2022/09/15 11:59:31;;;;;;;9.85;4.05;;;14.70;99.90;;;;;;6177025;23;20031;-70
2022/09/15 12:02:11;;;;;;;9.15;3.50;;;14.70;99.90;;;;;;6126140;23;1178766;-71
2022/09/15 12:04:48;;;;;;;7.38;3.28;;;14.70;99.90;;;;;;6179165;23;20021;-72
2022/09/15 12:07:22;;;;;;;4.15;3.25;;;14.70;99.90;;;;;;6179095;23;20044;-72
2022/09/15 12:09:51;;;;;;;4.97;3.28;;;14.60;99.90;;;;;;6152400;23;20021;-72
2022/09/15 12:12:21;;;;;;;6.13;3.22;;;14.60;99.90;;;;;;6181049;23;20096;-72
2022/09/15 12:14:52;;;;;;;7.47;3.55;;;14.60;99.90;;;;;;6180055;23;20032;-76
2022/09/15 12:17:31;;;;;;;5.90;3.38;;;14.70;99.90;;;;;;6178831;23;20107;-76
2022/09/15 12:20:04;;;;;;;4.57;2.80;;;14.80;99.90;;;;;;6181118;23;20107;-76
2022/09/15 12:22:41;;;;;;;8.25;3.55;;;14.80;99.90;;;;;;6181417;23;20041;-77
2022/09/15 12:25:16;;;;;;;4.15;3.08;;;14.70;99.90;;;;;;6152029;23;20075;-79
2022/09/15 12:27:44;;;;;;;8.20;3.33;;;14.60;99.90;;;;;;6152897;23;20037;-77
2022/09/15 12:30:39;;;;;;;3.88;3.47;;;14.50;99.90;;;;;;6180994;23;20036;-78
2022/09/15 12:33:43;;;;;;;5.18;3.00;;;14.50;99.90;;;;;;6180234;23;20021;-77
2022/09/15 12:36:38;;;;;;;6.03;3.60;;;14.50;99.90;;;;;;6152392;23;20104;-78
2022/09/15 12:39:23;;;;;;;8.18;3.72;;;14.40;99.90;;;;;;6144364;23;20442;-77
2022/09/15 12:41:55;;;;;;;3.95;3.53;;;14.40;99.90;;;;;;6153012;23;20017;-78
2022/09/15 12:44:31;;;;;;;4.30;3.90;;;14.40;99.90;;;;;;6151505;23;20031;-79
2022/09/15 12:47:00;;;;;;;4.30;3.80;;;14.40;99.90;;;;;;6152763;23;20036;-79
2022/09/15 12:49:43;;;;;;;4.13;3.72;;;14.40;99.90;;;;;;6180043;23;20381;-76
2022/09/15 12:52:11;;;;;;;5.00;4.20;;;14.30;99.90;;;;;;6152686;23;20049;-75
2022/09/15 12:54:42;;;;;;;6.57;4.15;;;14.30;99.90;;;;;;6127942;23;20043;-73
2022/09/15 12:57:23;;;;;;;5.07;3.60;;;14.30;99.90;;;;;;6181470;23;20104;-74
2022/09/15 12:59:50;;;;;;;5.53;3.50;;;14.30;99.90;;;;;;6153781;23;20071;-73
2022/09/15 13:02:44;;;;;;;10.15;4.00;;;14.30;99.90;;;;;;6179035;23;20028;-73
2022/09/15 13:05:13;;;;;;;4.35;3.50;;;14.20;99.90;;;;;;6151458;23;20028;-73
2022/09/15 13:07:56;;;;;;;4.30;3.92;;;14.20;99.90;;;;;;6180713;23;20025;-73
2022/09/15 13:10:30;;;;;;;6.28;3.67;;;14.30;99.90;;;;;;6179406;23;20044;-73
2022/09/15 13:13:20;;;;;;;5.95;3.63;;;14.30;99.90;;;;;;6153431;23;20041;-73